sensor_id;sensor_type;location;lat;lon;timestamp;P1;durP1;ratioP1;P2;durP2;ratioP2
13114;SDS011;6623;52.120;8.660;2022-08-21T00:02:02;10.27;;;3.60;;
13114;SDS011;6623;52.120;8.660;2022-08-21T00:04:37;13.37;;;3.53;;
13114;SDS011;6623;52.120;8.660;2022-08-21T00:09:33;8.37;;;3.90;;
13114;SDS011;6623;52.120;8.660;2022-08-21T00:12:02;6.90;;;3.17;;
13114;SDS011;6623;52.120;8.660;2022-08-21T00:14:28;8.30;;;3.67;;
13114;SDS011;6623;52.120;8.660;2022-08-21T00:17:19;7.27;;;3.50;;
13114;SDS011;6623;52.120;8.660;2022-08-21T00:19:54;6.63;;;3.40;;
13114;SDS011;6623;52.120;8.660;2022-08-21T00:22:38;6.47;;;3.23;;
13114;SDS011;6623;52.120;8.660;2022-08-21T00:25:05;7.10;;;3.37;;
13114;SDS011;6623;52.120;8.660;2022-08-21T00:27:47;10.27;;;3.60;;
13114;SDS011;6623;52.120;8.660;2022-08-21T00:30:15;7.73;;;3.70;;
13114;SDS011;6623;52.120;8.660;2022-08-21T00:32:42;5.57;;;3.17;;
13114;SDS011;6623;52.120;8.660;2022-08-21T00:35:09;12.07;;;4.27;;
13114;SDS011;6623;52.120;8.660;2022-08-21T00:37:37;6.07;;;3.37;;
13114;SDS011;6623;52.120;8.660;2022-08-21T00:40:04;5.17;;;3.10;;
13114;SDS011;6623;52.120;8.660;2022-08-21T00:42:33;4.13;;;3.00;;
13114;SDS011;6623;52.120;8.660;2022-08-21T00:44:59;5.20;;;3.03;;
13114;SDS011;6623;52.120;8.660;2022-08-21T00:47:27;12.43;;;3.67;;
13114;SDS011;6623;52.120;8.660;2022-08-21T00:49:58;7.00;;;3.70;;
13114;SDS011;6623;52.120;8.660;2022-08-21T00:52:25;7.03;;;3.77;;
13114;SDS011;6623;52.120;8.660;2022-08-21T00:54:52;6.30;;;3.37;;
13114;SDS011;6623;52.120;8.660;2022-08-21T00:57:21;13.47;;;3.90;;
13114;SDS011;6623;52.120;8.660;2022-08-21T00:59:48;6.03;;;3.53;;
13114;SDS011;6623;52.120;8.660;2022-08-21T01:02:15;5.20;;;3.10;;
13114;SDS011;6623;52.120;8.660;2022-08-21T01:04:42;8.63;;;3.27;;
13114;SDS011;6623;52.120;8.660;2022-08-21T01:07:08;8.37;;;3.30;;
13114;SDS011;6623;52.120;8.660;2022-08-21T01:09:34;7.57;;;3.57;;
13114;SDS011;6623;52.120;8.660;2022-08-21T01:12:00;8.03;;;3.40;;
13114;SDS011;6623;52.120;8.660;2022-08-21T01:14:28;6.73;;;3.97;;
13114;SDS011;6623;52.120;8.660;2022-08-21T01:16:55;6.17;;;3.13;;
13114;SDS011;6623;52.120;8.660;2022-08-21T01:19:22;7.70;;;3.33;;
13114;SDS011;6623;52.120;8.660;2022-08-21T01:21:54;6.93;;;3.27;;
13114;SDS011;6623;52.120;8.660;2022-08-21T01:24:21;6.97;;;3.60;;
13114;SDS011;6623;52.120;8.660;2022-08-21T01:26:53;6.07;;;3.10;;
13114;SDS011;6623;52.120;8.660;2022-08-21T01:29:28;6.23;;;3.30;;
13114;SDS011;6623;52.120;8.660;2022-08-21T01:32:13;6.40;;;3.60;;
13114;SDS011;6623;52.120;8.660;2022-08-21T01:34:55;6.10;;;3.43;;
13114;SDS011;6623;52.120;8.660;2022-08-21T01:37:27;5.20;;;3.20;;
13114;SDS011;6623;52.120;8.660;2022-08-21T01:40:00;8.80;;;3.20;;
13114;SDS011;6623;52.120;8.660;2022-08-21T01:42:27;7.77;;;3.67;;
13114;SDS011;6623;52.120;8.660;2022-08-21T01:44:56;8.07;;;3.40;;
13114;SDS011;6623;52.120;8.660;2022-08-21T01:47:24;7.80;;;3.77;;
13114;SDS011;6623;52.120;8.660;2022-08-21T01:49:53;7.30;;;4.27;;
13114;SDS011;6623;52.120;8.660;2022-08-21T01:52:26;9.87;;;4.30;;
13114;SDS011;6623;52.120;8.660;2022-08-21T01:54:54;8.87;;;3.97;;
13114;SDS011;6623;52.120;8.660;2022-08-21T01:57:20;7.40;;;3.43;;
13114;SDS011;6623;52.120;8.660;2022-08-21T01:59:47;8.43;;;4.00;;
13114;SDS011;6623;52.120;8.660;2022-08-21T02:02:16;8.10;;;3.40;;
13114;SDS011;6623;52.120;8.660;2022-08-21T02:04:44;9.47;;;3.83;;
13114;SDS011;6623;52.120;8.660;2022-08-21T02:07:10;7.00;;;3.73;;
13114;SDS011;6623;52.120;8.660;2022-08-21T02:09:39;15.30;;;4.63;;
13114;SDS011;6623;52.120;8.660;2022-08-21T02:12:10;10.27;;;4.17;;
13114;SDS011;6623;52.120;8.660;2022-08-21T02:14:37;8.57;;;3.70;;
13114;SDS011;6623;52.120;8.660;2022-08-21T02:17:03;9.07;;;4.00;;
13114;SDS011;6623;52.120;8.660;2022-08-21T02:19:29;6.27;;;3.70;;
13114;SDS011;6623;52.120;8.660;2022-08-21T02:21:56;8.57;;;3.53;;
13114;SDS011;6623;52.120;8.660;2022-08-21T02:24:22;5.93;;;3.20;;
13114;SDS011;6623;52.120;8.660;2022-08-21T02:26:51;5.33;;;3.47;;
13114;SDS011;6623;52.120;8.660;2022-08-21T02:29:17;6.40;;;3.37;;
13114;SDS011;6623;52.120;8.660;2022-08-21T02:31:43;6.33;;;3.40;;
13114;SDS011;6623;52.120;8.660;2022-08-21T02:34:09;8.60;;;3.40;;
13114;SDS011;6623;52.120;8.660;2022-08-21T02:36:35;7.70;;;3.40;;
13114;SDS011;6623;52.120;8.660;2022-08-21T02:39:02;8.97;;;3.13;;
13114;SDS011;6623;52.120;8.660;2022-08-21T02:41:28;7.97;;;3.77;;
13114;SDS011;6623;52.120;8.660;2022-08-21T02:43:54;5.40;;;3.37;;
13114;SDS011;6623;52.120;8.660;2022-08-21T02:46:32;5.33;;;3.70;;
13114;SDS011;6623;52.120;8.660;2022-08-21T02:49:24;6.60;;;3.70;;
13114;SDS011;6623;52.120;8.660;2022-08-21T02:52:09;6.57;;;3.93;;
13114;SDS011;6623;52.120;8.660;2022-08-21T02:54:36;6.07;;;3.33;;
13114;SDS011;6623;52.120;8.660;2022-08-21T02:57:02;9.23;;;3.43;;
13114;SDS011;6623;52.120;8.660;2022-08-21T02:59:28;5.37;;;3.50;;
13114;SDS011;6623;52.120;8.660;2022-08-21T03:02:00;8.17;;;3.87;;
13114;SDS011;6623;52.120;8.660;2022-08-21T03:04:36;7.17;;;4.07;;
13114;SDS011;6623;52.120;8.660;2022-08-21T03:07:02;7.17;;;4.03;;
13114;SDS011;6623;52.120;8.660;2022-08-21T03:09:37;7.77;;;3.70;;
13114;SDS011;6623;52.120;8.660;2022-08-21T03:12:06;10.33;;;3.97;;
13114;SDS011;6623;52.120;8.660;2022-08-21T03:14:40;6.43;;;3.83;;
13114;SDS011;6623;52.120;8.660;2022-08-21T03:17:08;4.93;;;3.70;;
13114;SDS011;6623;52.120;8.660;2022-08-21T03:19:37;8.33;;;4.10;;
13114;SDS011;6623;52.120;8.660;2022-08-21T03:22:06;6.97;;;4.00;;
13114;SDS011;6623;52.120;8.660;2022-08-21T03:24:38;10.03;;;3.73;;
13114;SDS011;6623;52.120;8.660;2022-08-21T03:27:04;7.63;;;4.13;;
13114;SDS011;6623;52.120;8.660;2022-08-21T03:29:33;10.10;;;4.23;;
13114;SDS011;6623;52.120;8.660;2022-08-21T03:31:59;7.60;;;4.00;;
13114;SDS011;6623;52.120;8.660;2022-08-21T03:34:25;8.17;;;4.47;;
13114;SDS011;6623;52.120;8.660;2022-08-21T03:36:51;5.10;;;4.23;;
13114;SDS011;6623;52.120;8.660;2022-08-21T03:39:17;6.77;;;4.77;;
13114;SDS011;6623;52.120;8.660;2022-08-21T03:41:43;6.67;;;4.90;;
13114;SDS011;6623;52.120;8.660;2022-08-21T03:44:10;9.40;;;4.20;;
13114;SDS011;6623;52.120;8.660;2022-08-21T03:46:36;6.07;;;4.10;;
13114;SDS011;6623;52.120;8.660;2022-08-21T03:49:03;11.03;;;4.63;;
13114;SDS011;6623;52.120;8.660;2022-08-21T03:51:30;5.50;;;4.13;;
13114;SDS011;6623;52.120;8.660;2022-08-21T03:53:57;8.60;;;4.50;;
13114;SDS011;6623;52.120;8.660;2022-08-21T03:56:23;7.20;;;4.70;;
13114;SDS011;6623;52.120;8.660;2022-08-21T03:58:49;6.63;;;4.30;;
13114;SDS011;6623;52.120;8.660;2022-08-21T04:01:15;7.43;;;4.90;;
13114;SDS011;6623;52.120;8.660;2022-08-21T04:03:41;9.40;;;4.40;;
13114;SDS011;6623;52.120;8.660;2022-08-21T04:06:10;10.50;;;4.80;;
13114;SDS011;6623;52.120;8.660;2022-08-21T04:08:39;13.37;;;4.80;;
13114;SDS011;6623;52.120;8.660;2022-08-21T04:11:10;8.40;;;4.03;;
13114;SDS011;6623;52.120;8.660;2022-08-21T04:13:45;5.67;;;4.17;;
13114;SDS011;6623;52.120;8.660;2022-08-21T04:16:12;7.60;;;4.70;;
13114;SDS011;6623;52.120;8.660;2022-08-21T04:18:44;7.93;;;4.47;;
13114;SDS011;6623;52.120;8.660;2022-08-21T04:21:16;8.17;;;4.57;;
13114;SDS011;6623;52.120;8.660;2022-08-21T04:23:42;5.30;;;4.23;;
13114;SDS011;6623;52.120;8.660;2022-08-21T04:26:24;8.90;;;4.83;;
13114;SDS011;6623;52.120;8.660;2022-08-21T04:28:51;6.40;;;4.33;;
13114;SDS011;6623;52.120;8.660;2022-08-21T04:31:22;6.17;;;4.90;;
13114;SDS011;6623;52.120;8.660;2022-08-21T04:33:48;7.67;;;4.97;;
13114;SDS011;6623;52.120;8.660;2022-08-21T04:36:15;14.23;;;4.93;;
13114;SDS011;6623;52.120;8.660;2022-08-21T04:38:59;9.80;;;5.20;;
13114;SDS011;6623;52.120;8.660;2022-08-21T04:41:26;8.70;;;4.93;;
13114;SDS011;6623;52.120;8.660;2022-08-21T04:43:55;10.13;;;5.20;;
13114;SDS011;6623;52.120;8.660;2022-08-21T04:46:22;9.33;;;5.47;;
13114;SDS011;6623;52.120;8.660;2022-08-21T04:48:48;9.13;;;5.30;;
13114;SDS011;6623;52.120;8.660;2022-08-21T04:53:57;8.03;;;5.70;;
13114;SDS011;6623;52.120;8.660;2022-08-21T04:59:19;8.57;;;4.80;;
13114;SDS011;6623;52.120;8.660;2022-08-21T05:01:46;7.57;;;5.17;;
13114;SDS011;6623;52.120;8.660;2022-08-21T05:04:14;8.57;;;4.87;;
13114;SDS011;6623;52.120;8.660;2022-08-21T05:06:42;9.43;;;5.20;;
13114;SDS011;6623;52.120;8.660;2022-08-21T05:09:09;10.20;;;6.23;;
13114;SDS011;6623;52.120;8.660;2022-08-21T05:11:37;12.47;;;5.70;;
13114;SDS011;6623;52.120;8.660;2022-08-21T05:14:03;13.00;;;5.67;;
13114;SDS011;6623;52.120;8.660;2022-08-21T05:16:29;9.13;;;5.17;;
13114;SDS011;6623;52.120;8.660;2022-08-21T05:18:55;10.03;;;5.87;;
13114;SDS011;6623;52.120;8.660;2022-08-21T05:21:21;9.67;;;5.80;;
13114;SDS011;6623;52.120;8.660;2022-08-21T05:23:47;11.40;;;6.17;;
13114;SDS011;6623;52.120;8.660;2022-08-21T05:26:13;8.37;;;5.73;;
13114;SDS011;6623;52.120;8.660;2022-08-21T05:28:39;9.70;;;6.10;;
13114;SDS011;6623;52.120;8.660;2022-08-21T05:33:58;8.93;;;6.47;;
13114;SDS011;6623;52.120;8.660;2022-08-21T05:36:30;12.70;;;5.97;;
13114;SDS011;6623;52.120;8.660;2022-08-21T05:39:11;10.70;;;5.77;;
13114;SDS011;6623;52.120;8.660;2022-08-21T05:42:01;11.10;;;6.03;;
13114;SDS011;6623;52.120;8.660;2022-08-21T05:44:26;10.37;;;5.97;;
13114;SDS011;6623;52.120;8.660;2022-08-21T05:46:52;8.77;;;6.10;;
13114;SDS011;6623;52.120;8.660;2022-08-21T05:49:18;12.97;;;6.73;;
13114;SDS011;6623;52.120;8.660;2022-08-21T05:51:44;11.33;;;6.07;;
13114;SDS011;6623;52.120;8.660;2022-08-21T05:54:10;11.30;;;5.83;;
13114;SDS011;6623;52.120;8.660;2022-08-21T05:56:36;10.70;;;7.07;;
13114;SDS011;6623;52.120;8.660;2022-08-21T05:59:05;9.57;;;6.07;;
13114;SDS011;6623;52.120;8.660;2022-08-21T06:01:35;10.07;;;4.87;;
13114;SDS011;6623;52.120;8.660;2022-08-21T06:04:19;8.97;;;6.53;;
13114;SDS011;6623;52.120;8.660;2022-08-21T06:06:45;13.20;;;6.23;;
13114;SDS011;6623;52.120;8.660;2022-08-21T06:09:12;9.50;;;5.77;;
13114;SDS011;6623;52.120;8.660;2022-08-21T06:11:38;7.93;;;6.03;;
13114;SDS011;6623;52.120;8.660;2022-08-21T06:14:04;10.90;;;5.93;;
13114;SDS011;6623;52.120;8.660;2022-08-21T06:16:31;9.23;;;5.83;;
13114;SDS011;6623;52.120;8.660;2022-08-21T06:18:57;11.27;;;6.03;;
13114;SDS011;6623;52.120;8.660;2022-08-21T06:21:23;8.20;;;5.70;;
13114;SDS011;6623;52.120;8.660;2022-08-21T06:23:49;8.67;;;6.37;;
13114;SDS011;6623;52.120;8.660;2022-08-21T06:26:15;10.20;;;6.13;;
13114;SDS011;6623;52.120;8.660;2022-08-21T06:28:41;12.13;;;6.50;;
13114;SDS011;6623;52.120;8.660;2022-08-21T06:31:11;10.67;;;6.17;;
13114;SDS011;6623;52.120;8.660;2022-08-21T06:33:37;9.03;;;6.37;;
13114;SDS011;6623;52.120;8.660;2022-08-21T06:36:03;10.50;;;6.13;;
13114;SDS011;6623;52.120;8.660;2022-08-21T06:38:30;9.30;;;6.10;;
13114;SDS011;6623;52.120;8.660;2022-08-21T06:40:56;8.07;;;6.07;;
13114;SDS011;6623;52.120;8.660;2022-08-21T06:43:21;10.67;;;5.97;;
13114;SDS011;6623;52.120;8.660;2022-08-21T06:45:47;8.60;;;6.00;;
13114;SDS011;6623;52.120;8.660;2022-08-21T06:48:13;9.20;;;5.83;;
13114;SDS011;6623;52.120;8.660;2022-08-21T06:50:42;9.27;;;6.00;;
13114;SDS011;6623;52.120;8.660;2022-08-21T06:53:12;12.20;;;6.10;;
13114;SDS011;6623;52.120;8.660;2022-08-21T06:55:38;10.60;;;5.87;;
13114;SDS011;6623;52.120;8.660;2022-08-21T06:58:05;10.73;;;6.17;;
13114;SDS011;6623;52.120;8.660;2022-08-21T07:00:32;8.27;;;5.20;;
13114;SDS011;6623;52.120;8.660;2022-08-21T07:02:58;8.33;;;5.50;;
13114;SDS011;6623;52.120;8.660;2022-08-21T07:05:24;11.00;;;5.63;;
13114;SDS011;6623;52.120;8.660;2022-08-21T07:07:50;9.03;;;5.40;;
13114;SDS011;6623;52.120;8.660;2022-08-21T07:10:16;10.03;;;5.53;;
13114;SDS011;6623;52.120;8.660;2022-08-21T07:12:42;7.67;;;4.33;;
13114;SDS011;6623;52.120;8.660;2022-08-21T07:15:09;9.73;;;4.90;;
13114;SDS011;6623;52.120;8.660;2022-08-21T07:17:35;15.20;;;5.27;;
13114;SDS011;6623;52.120;8.660;2022-08-21T07:20:01;8.43;;;5.13;;
13114;SDS011;6623;52.120;8.660;2022-08-21T07:22:34;7.00;;;4.37;;
13114;SDS011;6623;52.120;8.660;2022-08-21T07:25:26;6.33;;;3.87;;
13114;SDS011;6623;52.120;8.660;2022-08-21T07:30:43;7.87;;;4.20;;
13114;SDS011;6623;52.120;8.660;2022-08-21T07:33:12;9.40;;;4.03;;
13114;SDS011;6623;52.120;8.660;2022-08-21T07:35:41;8.00;;;3.80;;
13114;SDS011;6623;52.120;8.660;2022-08-21T07:38:13;8.90;;;3.77;;
13114;SDS011;6623;52.120;8.660;2022-08-21T07:40:45;7.97;;;3.80;;
13114;SDS011;6623;52.120;8.660;2022-08-21T07:43:14;8.13;;;3.80;;
13114;SDS011;6623;52.120;8.660;2022-08-21T07:45:42;7.23;;;3.90;;
13114;SDS011;6623;52.120;8.660;2022-08-21T07:48:14;6.60;;;2.93;;
13114;SDS011;6623;52.120;8.660;2022-08-21T07:50:49;7.93;;;2.90;;
13114;SDS011;6623;52.120;8.660;2022-08-21T07:53:18;3.50;;;2.27;;
13114;SDS011;6623;52.120;8.660;2022-08-21T07:55:47;6.10;;;2.87;;
13114;SDS011;6623;52.120;8.660;2022-08-21T07:58:13;4.67;;;2.33;;
13114;SDS011;6623;52.120;8.660;2022-08-21T08:00:39;5.37;;;2.53;;
13114;SDS011;6623;52.120;8.660;2022-08-21T08:03:07;8.37;;;2.77;;
13114;SDS011;6623;52.120;8.660;2022-08-21T08:05:33;5.90;;;2.20;;
13114;SDS011;6623;52.120;8.660;2022-08-21T08:08:02;6.80;;;2.00;;
13114;SDS011;6623;52.120;8.660;2022-08-21T08:10:28;3.73;;;2.10;;
13114;SDS011;6623;52.120;8.660;2022-08-21T08:12:57;5.13;;;2.33;;
13114;SDS011;6623;52.120;8.660;2022-08-21T08:15:24;6.13;;;3.07;;
13114;SDS011;6623;52.120;8.660;2022-08-21T08:17:53;5.57;;;2.77;;
13114;SDS011;6623;52.120;8.660;2022-08-21T08:20:29;8.83;;;2.10;;
13114;SDS011;6623;52.120;8.660;2022-08-21T08:23:04;6.20;;;2.53;;
13114;SDS011;6623;52.120;8.660;2022-08-21T08:25:38;6.53;;;2.40;;
13114;SDS011;6623;52.120;8.660;2022-08-21T08:28:07;7.17;;;2.17;;
13114;SDS011;6623;52.120;8.660;2022-08-21T08:30:38;5.67;;;2.20;;
13114;SDS011;6623;52.120;8.660;2022-08-21T08:33:04;7.87;;;2.40;;
13114;SDS011;6623;52.120;8.660;2022-08-21T08:35:31;4.53;;;2.00;;
13114;SDS011;6623;52.120;8.660;2022-08-21T08:38:01;5.10;;;1.80;;
13114;SDS011;6623;52.120;8.660;2022-08-21T08:40:41;7.37;;;2.13;;
13114;SDS011;6623;52.120;8.660;2022-08-21T08:43:10;4.87;;;2.00;;
13114;SDS011;6623;52.120;8.660;2022-08-21T08:45:46;6.00;;;1.93;;
13114;SDS011;6623;52.120;8.660;2022-08-21T08:48:13;5.40;;;1.87;;
13114;SDS011;6623;52.120;8.660;2022-08-21T08:50:43;4.60;;;1.73;;
13114;SDS011;6623;52.120;8.660;2022-08-21T08:53:12;5.87;;;2.03;;
13114;SDS011;6623;52.120;8.660;2022-08-21T08:55:40;4.20;;;1.70;;
13114;SDS011;6623;52.120;8.660;2022-08-21T08:58:18;5.73;;;1.80;;
13114;SDS011;6623;52.120;8.660;2022-08-21T09:00:46;6.13;;;1.90;;
13114;SDS011;6623;52.120;8.660;2022-08-21T09:03:13;5.20;;;2.00;;
13114;SDS011;6623;52.120;8.660;2022-08-21T09:05:46;5.73;;;1.60;;
13114;SDS011;6623;52.120;8.660;2022-08-21T09:10:48;3.60;;;1.30;;
13114;SDS011;6623;52.120;8.660;2022-08-21T09:13:21;7.47;;;1.90;;
13114;SDS011;6623;52.120;8.660;2022-08-21T09:21:02;4.13;;;1.43;;
13114;SDS011;6623;52.120;8.660;2022-08-21T09:23:52;3.10;;;1.20;;
13114;SDS011;6623;52.120;8.660;2022-08-21T09:26:25;6.73;;;1.73;;
13114;SDS011;6623;52.120;8.660;2022-08-21T09:28:56;6.10;;;1.60;;
13114;SDS011;6623;52.120;8.660;2022-08-21T09:31:30;6.30;;;1.90;;
13114;SDS011;6623;52.120;8.660;2022-08-21T09:33:57;7.80;;;1.90;;
13114;SDS011;6623;52.120;8.660;2022-08-21T09:36:45;5.87;;;1.93;;
13114;SDS011;6623;52.120;8.660;2022-08-21T09:39:31;6.50;;;2.00;;
13114;SDS011;6623;52.120;8.660;2022-08-21T09:42:00;3.07;;;1.37;;
13114;SDS011;6623;52.120;8.660;2022-08-21T09:44:33;5.73;;;1.87;;
13114;SDS011;6623;52.120;8.660;2022-08-21T09:47:10;6.00;;;1.60;;
13114;SDS011;6623;52.120;8.660;2022-08-21T09:49:40;6.33;;;1.77;;
13114;SDS011;6623;52.120;8.660;2022-08-21T09:55:06;4.33;;;1.57;;
13114;SDS011;6623;52.120;8.660;2022-08-21T09:58:04;4.40;;;1.53;;
13114;SDS011;6623;52.120;8.660;2022-08-21T10:00:33;9.30;;;1.50;;
13114;SDS011;6623;52.120;8.660;2022-08-21T10:05:49;8.57;;;1.70;;
13114;SDS011;6623;52.120;8.660;2022-08-21T10:23:00;5.80;;;1.90;;
13114;SDS011;6623;52.120;8.660;2022-08-21T10:25:39;10.77;;;2.20;;
13114;SDS011;6623;52.120;8.660;2022-08-21T10:28:17;5.80;;;1.73;;
13114;SDS011;6623;52.120;8.660;2022-08-21T10:31:07;5.03;;;1.97;;
13114;SDS011;6623;52.120;8.660;2022-08-21T10:36:39;6.47;;;2.53;;
13114;SDS011;6623;52.120;8.660;2022-08-21T10:39:27;5.07;;;2.27;;
13114;SDS011;6623;52.120;8.660;2022-08-21T10:52:36;8.60;;;1.93;;
13114;SDS011;6623;52.120;8.660;2022-08-21T10:55:10;5.87;;;2.10;;
13114;SDS011;6623;52.120;8.660;2022-08-21T10:57:58;6.00;;;2.90;;
13114;SDS011;6623;52.120;8.660;2022-08-21T11:00:32;6.17;;;2.77;;
13114;SDS011;6623;52.120;8.660;2022-08-21T11:05:33;4.30;;;2.30;;
13114;SDS011;6623;52.120;8.660;2022-08-21T11:08:02;5.57;;;1.90;;
13114;SDS011;6623;52.120;8.660;2022-08-21T11:10:44;2.80;;;1.60;;
13114;SDS011;6623;52.120;8.660;2022-08-21T11:13:15;5.30;;;1.80;;
13114;SDS011;6623;52.120;8.660;2022-08-21T11:18:32;4.83;;;1.90;;
13114;SDS011;6623;52.120;8.660;2022-08-21T11:21:15;3.13;;;1.83;;
13114;SDS011;6623;52.120;8.660;2022-08-21T11:24:12;4.87;;;1.87;;
13114;SDS011;6623;52.120;8.660;2022-08-21T11:29:18;2.63;;;1.53;;
13114;SDS011;6623;52.120;8.660;2022-08-21T11:32:01;4.23;;;1.70;;
13114;SDS011;6623;52.120;8.660;2022-08-21T11:34:47;6.10;;;1.53;;
13114;SDS011;6623;52.120;8.660;2022-08-21T11:45:56;3.37;;;1.70;;
13114;SDS011;6623;52.120;8.660;2022-08-21T11:51:18;2.73;;;1.63;;
13114;SDS011;6623;52.120;8.660;2022-08-21T11:54:03;3.07;;;1.90;;
13114;SDS011;6623;52.120;8.660;2022-08-21T11:56:35;2.93;;;1.57;;
13114;SDS011;6623;52.120;8.660;2022-08-21T11:59:07;4.23;;;2.33;;
13114;SDS011;6623;52.120;8.660;2022-08-21T12:01:39;5.17;;;1.90;;
13114;SDS011;6623;52.120;8.660;2022-08-21T12:04:18;3.47;;;1.70;;
13114;SDS011;6623;52.120;8.660;2022-08-21T12:06:47;6.30;;;1.93;;
13114;SDS011;6623;52.120;8.660;2022-08-21T12:11:59;4.50;;;1.83;;
13114;SDS011;6623;52.120;8.660;2022-08-21T12:14:35;5.37;;;1.97;;
13114;SDS011;6623;52.120;8.660;2022-08-21T12:17:04;7.10;;;1.97;;
13114;SDS011;6623;52.120;8.660;2022-08-21T12:19:31;4.23;;;2.13;;
13114;SDS011;6623;52.120;8.660;2022-08-21T12:26:53;8.17;;;2.80;;
13114;SDS011;6623;52.120;8.660;2022-08-21T12:29:32;4.30;;;1.80;;
13114;SDS011;6623;52.120;8.660;2022-08-21T12:32:00;5.33;;;2.30;;
13114;SDS011;6623;52.120;8.660;2022-08-21T12:34:35;4.07;;;2.03;;
13114;SDS011;6623;52.120;8.660;2022-08-21T12:37:03;3.60;;;1.83;;
13114;SDS011;6623;52.120;8.660;2022-08-21T12:39:30;5.97;;;1.63;;
13114;SDS011;6623;52.120;8.660;2022-08-21T12:42:15;3.70;;;1.90;;
13114;SDS011;6623;52.120;8.660;2022-08-21T12:44:45;4.67;;;1.87;;
13114;SDS011;6623;52.120;8.660;2022-08-21T12:47:29;4.30;;;1.90;;
13114;SDS011;6623;52.120;8.660;2022-08-21T12:49:59;3.43;;;1.80;;
13114;SDS011;6623;52.120;8.660;2022-08-21T12:52:30;4.03;;;1.90;;
13114;SDS011;6623;52.120;8.660;2022-08-21T12:54:58;3.00;;;1.50;;
13114;SDS011;6623;52.120;8.660;2022-08-21T12:57:26;4.50;;;1.87;;
13114;SDS011;6623;52.120;8.660;2022-08-21T13:00:05;2.93;;;1.53;;
13114;SDS011;6623;52.120;8.660;2022-08-21T13:02:45;5.97;;;1.67;;
13114;SDS011;6623;52.120;8.660;2022-08-21T13:05:34;5.13;;;1.80;;
13114;SDS011;6623;52.120;8.660;2022-08-21T13:08:15;4.63;;;1.70;;
13114;SDS011;6623;52.120;8.660;2022-08-21T13:10:42;3.90;;;1.83;;
13114;SDS011;6623;52.120;8.660;2022-08-21T13:13:12;6.13;;;1.87;;
13114;SDS011;6623;52.120;8.660;2022-08-21T13:15:41;3.33;;;1.80;;
13114;SDS011;6623;52.120;8.660;2022-08-21T13:18:07;2.83;;;1.53;;
13114;SDS011;6623;52.120;8.660;2022-08-21T13:20:35;5.67;;;1.90;;
13114;SDS011;6623;52.120;8.660;2022-08-21T13:23:02;4.17;;;1.60;;
13114;SDS011;6623;52.120;8.660;2022-08-21T13:25:30;3.80;;;1.70;;
13114;SDS011;6623;52.120;8.660;2022-08-21T13:28:06;3.47;;;1.40;;
13114;SDS011;6623;52.120;8.660;2022-08-21T13:30:33;2.27;;;1.50;;
13114;SDS011;6623;52.120;8.660;2022-08-21T13:33:01;2.63;;;1.23;;
13114;SDS011;6623;52.120;8.660;2022-08-21T13:35:30;4.00;;;1.57;;
13114;SDS011;6623;52.120;8.660;2022-08-21T13:37:56;4.33;;;1.70;;
13114;SDS011;6623;52.120;8.660;2022-08-21T13:40:40;4.50;;;1.50;;
13114;SDS011;6623;52.120;8.660;2022-08-21T13:43:15;2.37;;;1.20;;
13114;SDS011;6623;52.120;8.660;2022-08-21T13:45:43;3.63;;;1.57;;
13114;SDS011;6623;52.120;8.660;2022-08-21T13:48:10;3.95;;;1.50;;
13114;SDS011;6623;52.120;8.660;2022-08-21T13:50:36;3.03;;;1.40;;
13114;SDS011;6623;52.120;8.660;2022-08-21T13:53:04;4.07;;;1.33;;
13114;SDS011;6623;52.120;8.660;2022-08-21T13:55:49;2.77;;;1.37;;
13114;SDS011;6623;52.120;8.660;2022-08-21T13:58:30;3.65;;;1.50;;
13114;SDS011;6623;52.120;8.660;2022-08-21T14:00:57;3.83;;;1.30;;
13114;SDS011;6623;52.120;8.660;2022-08-21T14:03:35;4.07;;;1.52;;
13114;SDS011;6623;52.120;8.660;2022-08-21T14:06:03;2.45;;;1.30;;
13114;SDS011;6623;52.120;8.660;2022-08-21T14:09:07;3.20;;;1.45;;
13114;SDS011;6623;52.120;8.660;2022-08-21T14:11:54;3.65;;;1.60;;
13114;SDS011;6623;52.120;8.660;2022-08-21T14:17:34;2.70;;;1.13;;
13114;SDS011;6623;52.120;8.660;2022-08-21T14:19:40;6.28;;;1.50;;
13114;SDS011;6623;52.120;8.660;2022-08-21T14:24:58;2.58;;;1.42;;
13114;SDS011;6623;52.120;8.660;2022-08-21T14:27:25;3.75;;;1.88;;
13114;SDS011;6623;52.120;8.660;2022-08-21T14:29:56;4.82;;;1.58;;
13114;SDS011;6623;52.120;8.660;2022-08-21T14:32:27;4.15;;;1.48;;
13114;SDS011;6623;52.120;8.660;2022-08-21T14:34:55;3.22;;;1.50;;
13114;SDS011;6623;52.120;8.660;2022-08-21T14:37:23;3.03;;;1.10;;
13114;SDS011;6623;52.120;8.660;2022-08-21T14:39:50;3.25;;;1.40;;
13114;SDS011;6623;52.120;8.660;2022-08-21T14:42:16;2.00;;;1.20;;
13114;SDS011;6623;52.120;8.660;2022-08-21T14:44:42;2.95;;;1.25;;
13114;SDS011;6623;52.120;8.660;2022-08-21T14:47:09;2.97;;;1.10;;
13114;SDS011;6623;52.120;8.660;2022-08-21T14:49:35;3.42;;;1.00;;
13114;SDS011;6623;52.120;8.660;2022-08-21T14:52:01;3.67;;;1.10;;
13114;SDS011;6623;52.120;8.660;2022-08-21T14:54:28;2.72;;;1.08;;
13114;SDS011;6623;52.120;8.660;2022-08-21T14:56:56;3.07;;;1.00;;
13114;SDS011;6623;52.120;8.660;2022-08-21T14:59:22;2.33;;;1.20;;
13114;SDS011;6623;52.120;8.660;2022-08-21T15:01:48;2.03;;;0.90;;
13114;SDS011;6623;52.120;8.660;2022-08-21T15:04:15;3.28;;;1.10;;
13114;SDS011;6623;52.120;8.660;2022-08-21T15:06:41;2.43;;;0.90;;
13114;SDS011;6623;52.120;8.660;2022-08-21T15:09:07;3.58;;;0.90;;
13114;SDS011;6623;52.120;8.660;2022-08-21T15:11:33;2.28;;;0.93;;
13114;SDS011;6623;52.120;8.660;2022-08-21T15:13:59;3.97;;;1.13;;
13114;SDS011;6623;52.120;8.660;2022-08-21T15:16:27;1.48;;;0.80;;
13114;SDS011;6623;52.120;8.660;2022-08-21T15:18:53;3.45;;;0.93;;
13114;SDS011;6623;52.120;8.660;2022-08-21T15:21:19;4.10;;;1.20;;
13114;SDS011;6623;52.120;8.660;2022-08-21T15:23:54;3.95;;;1.02;;
13114;SDS011;6623;52.120;8.660;2022-08-21T15:26:26;2.37;;;0.93;;
13114;SDS011;6623;52.120;8.660;2022-08-21T15:31:50;1.77;;;1.00;;
13114;SDS011;6623;52.120;8.660;2022-08-21T15:34:23;3.73;;;1.30;;
13114;SDS011;6623;52.120;8.660;2022-08-21T15:36:53;1.50;;;0.90;;
13114;SDS011;6623;52.120;8.660;2022-08-21T15:39:25;1.40;;;0.90;;
13114;SDS011;6623;52.120;8.660;2022-08-21T15:41:51;3.23;;;0.93;;
13114;SDS011;6623;52.120;8.660;2022-08-21T15:44:21;1.00;;;0.80;;
13114;SDS011;6623;52.120;8.660;2022-08-21T15:46:50;1.17;;;0.83;;
13114;SDS011;6623;52.120;8.660;2022-08-21T15:49:19;2.23;;;1.00;;
13114;SDS011;6623;52.120;8.660;2022-08-21T15:51:48;1.57;;;1.00;;
13114;SDS011;6623;52.120;8.660;2022-08-21T15:54:14;6.90;;;0.90;;
13114;SDS011;6623;52.120;8.660;2022-08-21T15:56:40;3.23;;;1.10;;
13114;SDS011;6623;52.120;8.660;2022-08-21T15:59:15;1.60;;;0.87;;
13114;SDS011;6623;52.120;8.660;2022-08-21T16:01:44;1.70;;;0.90;;
13114;SDS011;6623;52.120;8.660;2022-08-21T16:04:15;2.33;;;1.00;;
13114;SDS011;6623;52.120;8.660;2022-08-21T16:06:47;3.23;;;1.10;;
13114;SDS011;6623;52.120;8.660;2022-08-21T16:09:13;1.90;;;0.90;;
13114;SDS011;6623;52.120;8.660;2022-08-21T16:11:40;1.13;;;0.90;;
13114;SDS011;6623;52.120;8.660;2022-08-21T16:14:11;2.00;;;0.90;;
13114;SDS011;6623;52.120;8.660;2022-08-21T16:16:41;1.27;;;0.77;;
13114;SDS011;6623;52.120;8.660;2022-08-21T16:21:42;1.33;;;0.80;;
13114;SDS011;6623;52.120;8.660;2022-08-21T16:24:17;3.00;;;1.10;;
13114;SDS011;6623;52.120;8.660;2022-08-21T16:26:43;3.35;;;1.02;;
13114;SDS011;6623;52.120;8.660;2022-08-21T16:29:10;4.57;;;1.20;;
13114;SDS011;6623;52.120;8.660;2022-08-21T16:31:54;5.33;;;1.67;;
13114;SDS011;6623;52.120;8.660;2022-08-21T16:34:39;2.13;;;1.17;;
13114;SDS011;6623;52.120;8.660;2022-08-21T16:37:07;2.33;;;1.03;;
13114;SDS011;6623;52.120;8.660;2022-08-21T16:39:40;3.27;;;1.20;;
13114;SDS011;6623;52.120;8.660;2022-08-21T16:42:17;3.23;;;1.10;;
13114;SDS011;6623;52.120;8.660;2022-08-21T16:44:47;2.43;;;1.20;;
13114;SDS011;6623;52.120;8.660;2022-08-21T16:47:13;5.87;;;1.40;;
13114;SDS011;6623;52.120;8.660;2022-08-21T16:49:40;3.60;;;1.10;;
13114;SDS011;6623;52.120;8.660;2022-08-21T16:52:06;2.77;;;1.17;;
13114;SDS011;6623;52.120;8.660;2022-08-21T16:54:38;3.53;;;1.37;;